• Join FlightAware (Why Join?)
  • Login
  • US Flag 
Trick or treat! (Boo!!) 
06:16AM EDT


 

Airport Tracker/Info


-or-


 

Live Flight TrackerFlight Track Log ✈ AAL1491 ✈ 18-Jul-2013 ✈ KDFW - KSFO

Flight Track Log - Related Links

Times and Time Zones

All times are in EDT time to prevent confusion due to time zone crossing. See the AAL1491 flight status page for this flight to view local times or setup timezone preferences in your user account.

Time Position Orientation Groundspeed Altitude Reporting Facility
EDT Latitude Longitude Course Direction KTS MPH feet Rate Location/Type
04:17PM 32.8833 -97.0500 307° West 167 192 1,100  Level Dallas / Fort Worth TRACON
04:18PM 32.8500 -97.0500 180° South 201 231 2,400 2,100 Climbing Dallas / Fort Worth TRACON
04:19PM 32.7648 -97.1925 287° West  Level FlightAware Approximate
04:19PM 32.7833 -97.0833 203° Southwest 256 295 4,800  Level Dallas / Fort Worth TRACON
04:20PM 32.8158 -97.3119 307° West  Level FlightAware Approximate
04:20PM 32.7372 -97.1961 244° Southwest 292 336 8,400  Level Fort Worth Center
04:21PM 32.8871 -97.4222 308° West  Level FlightAware Approximate
04:21PM 32.7622 -97.2850 289° West 314 361 10,100  Level Fort Worth Center
04:22PM 32.9595 -97.5315 307° West  Level FlightAware Approximate
04:22PM 32.8314 -97.3739 313° West 329 379 12,200  Level Fort Worth Center
04:23PM 33.0302 -97.6425 307° West  Level FlightAware Approximate
04:23PM 32.9086 -97.4631 316° Northwest 371 427 14,900  Level Fort Worth Center
04:24PM 32.9753 -97.5447 314° West 383 441 15,800 1,080 Climbing Fort Worth Center
04:25PM 33.0544 -97.6389 315° West 388 447 17,100 1,080 Climbing Fort Worth Center
04:26PM 33.1397 -97.7408 315° West 395 455 18,000 900 Climbing Fort Worth Center
04:27PM 33.1539 -97.8600 278° West 381 438 19,000 600 Climbing Fort Worth Center
04:28PM 33.1847 -97.9992 285° West 390 449 19,300 1,020 Climbing Fort Worth Center
04:29PM 33.2217 -98.1161 291° West 412 474 21,100 1,800 Climbing Fort Worth Center
04:30PM 33.2647 -98.2631 289° West 422 486 22,900 1,620 Climbing Fort Worth Center
04:31PM 33.3033 -98.3878 290° West 440 506 24,400 1,500 Climbing Fort Worth Center
04:32PM 33.3461 -98.5250 290° West 446 513 26,000 1,500 Climbing Fort Worth Center
04:33PM 33.3906 -98.6675 291° West 451 519 27,500 1,560 Climbing Fort Worth Center
04:34PM 33.4308 -98.8097 289° West 451 519 29,200 1,560 Climbing Fort Worth Center
04:35PM 33.4750 -98.9550 290° West 457 526 30,700 1,440 Climbing Fort Worth Center
04:36PM 33.5192 -99.0978 290° West 457 526 32,100 1,380 Climbing Fort Worth Center
04:37PM 33.5589 -99.2381 289° West 457 526 33,500 900 Climbing Fort Worth Center
04:38PM 33.6006 -99.3761 290° West 452 520 34,000 240 Climbing Fort Worth Center
04:39PM 33.6656 -99.4997 302° West 447 514 34,000  Level Fort Worth Center
04:40PM 33.7556 -99.5969 318° Northwest 437 503 34,000  Level Fort Worth Center
04:41PM 33.8456 -99.7017 316° Northwest 436 502 34,000  Level Fort Worth Center
04:42PM 33.9356 -99.8017 317° Northwest 436 502 34,000  Level Fort Worth Center
04:43PM 34.0256 -99.8994 318° Northwest 436 502 34,000  Level Fort Worth Center
04:44PM 34.1153 -99.9972 318° Northwest 436 502 34,000  Level Fort Worth Center
04:45PM 34.2028 -100.1003 316° Northwest 436 502 34,000  Level Fort Worth Center
04:48PM 34.4106 -100.3531 315° West 434 499 34,000  Level Albuquerque Center
04:49PM 34.4639 -100.4828 297° West 436 502 34,000  Level Albuquerque Center
04:50PM 34.5092 -100.6181 292° West 434 499 34,000  Level Albuquerque Center
04:51PM 34.5544 -100.7542 292° West 435 501 34,000  Level Albuquerque Center
04:52PM 34.6000 -100.8897 292° West 434 499 34,000  Level Albuquerque Center
04:53PM 34.6539 -101.0528 292° West 434 499 34,000  Level Albuquerque Center
04:54PM 34.6983 -101.1889 292° West 434 499 34,000  Level Albuquerque Center
04:55PM 34.7417 -101.3250 291° West 433 498 34,000  Level Albuquerque Center
04:56PM 34.7850 -101.4619 291° West 432 497 34,000  Level Albuquerque Center
04:57PM 34.8286 -101.5981 291° West 431 496 34,000  Level Albuquerque Center
04:58PM 34.8719 -101.7350 291° West 431 496 34,000  Level Albuquerque Center
04:59PM 34.9150 -101.8722 291° West 431 496 34,000  Level Albuquerque Center
05:00PM 34.9492 -102.0125 287° West 430 495 34,000  Level Albuquerque Center
05:01PM 34.9742 -102.1564 282° West 432 497 34,000  Level Albuquerque Center
05:02PM 35.0058 -102.3283 283° West 432 497 34,000  Level Albuquerque Center
05:03PM 35.0319 -102.4722 283° West 433 498 34,000  Level Albuquerque Center
05:04PM 35.0583 -102.6153 283° West 432 497 34,000  Level Albuquerque Center
05:05PM 35.0853 -102.7583 283° West 433 498 34,000  Level Albuquerque Center
05:06PM 35.1122 -102.9017 283° West 433 498 34,000  Level Albuquerque Center
05:07PM 35.1442 -103.0622 284° West 433 498 34,000  Level Albuquerque Center
05:08PM 35.1731 -103.2044 284° West 430 495 34,000  Level Albuquerque Center
05:09PM 35.2006 -103.3481 283° West 430 495 34,000  Level Albuquerque Center
05:10PM 35.2289 -103.4928 284° West 434 499 34,000  Level Albuquerque Center
05:11PM 35.2572 -103.6381 283° West 435 501 34,000  Level Albuquerque Center
05:12PM 35.2867 -103.7819 284° West 434 499 34,000  Level Albuquerque Center
05:13PM 35.3161 -103.9308 284° West 435 501 34,000  Level Albuquerque Center
05:14PM 35.3511 -104.0933 285° West 435 501 34,000  Level Albuquerque Center
05:15PM 35.3800 -104.2383 284° West 442 509 34,000  Level Albuquerque Center
05:16PM 35.4075 -104.3822 283° West 439 505 34,000  Level Albuquerque Center
05:17PM 35.4356 -104.5264 283° West 435 501 34,000  Level Albuquerque Center
05:18PM 35.4700 -104.6953 284° West 436 502 34,000  Level Albuquerque Center
05:19PM 35.4994 -104.8417 284° West 437 503 34,000  Level Albuquerque Center
05:21PM 35.5292 -104.9886 284° West 440 506 34,000  Level Albuquerque Center
05:22PM 35.5583 -105.1347 284° West 439 505 34,000  Level Albuquerque Center
05:23PM 35.5894 -105.2814 285° West 440 506 34,000  Level Albuquerque Center
05:24PM 35.6311 -105.4244 290° West 440 506 34,000  Level Albuquerque Center
05:25PM 35.6725 -105.5611 290° West 441 507 34,000  Level Albuquerque Center
05:26PM 35.7122 -105.7028 289° West 440 506 34,000  Level Albuquerque Center
05:27PM 35.7667 -105.8706 292° West 441 507 34,000  Level Albuquerque Center
05:28PM 35.8139 -106.0103 293° West 442 509 34,000  Level Albuquerque Center
05:29PM 35.8614 -106.1503 293° West 445 512 34,000 120 Level Albuquerque Center
05:30PM 35.9092 -106.2978 292° West 446 513 34,300 600 Climbing Albuquerque Center
05:31PM 35.9544 -106.4358 292° West 451 519 35,300 1,020 Climbing Albuquerque Center
05:32PM 36.0017 -106.5797 292° West 455 524 36,500 1,080 Climbing Albuquerque Center
05:33PM 36.0575 -106.7511 292° West 452 520 37,600 720 Climbing Albuquerque Center
05:34PM 36.1042 -106.8944 292° West 452 520 38,000 180 Climbing Albuquerque Center
05:35PM 36.1514 -107.0411 292° West 457 526 38,000  Level Albuquerque Center
05:36PM 36.2019 -107.2006 291° West 458 527 38,000  Level Albuquerque Center
05:37PM 36.2469 -107.3394 292° West 456 525 38,000  Level Albuquerque Center
05:38PM 36.2986 -107.5031 291° West 456 525 38,000  Level Albuquerque Center
05:39PM 36.3422 -107.6433 291° West 458 527 38,000  Level Albuquerque Center
05:40PM 36.3939 -107.8094 291° West 461 531 38,000  Level Albuquerque Center
05:41PM 36.4222 -107.9036 291° West 463 533 38,000  Level Denver Center
05:42PM 36.4667 -108.0450 291° West 466 536 38,000  Level Denver Center
05:43PM 36.5169 -108.2083 291° West 457 526 38,000  Level Denver Center
05:44PM 36.5631 -108.3522 292° West 464 534 38,000  Level Denver Center
05:45PM 36.6125 -108.5183 290° West 462 532 38,000  Level Denver Center
05:46PM 36.6550 -108.6600 291° West 460 529 38,000  Level Denver Center
05:47PM 36.7047 -108.8256 291° West 458 527 38,000  Level Denver Center
05:48PM 36.7478 -108.9661 291° West 457 526 38,000  Level Denver Center
05:49PM 36.7972 -109.1350 290° West 464 534 38,000  Level Denver Center
05:50PM 36.8400 -109.2797 290° West 465 535 38,000  Level Denver Center
05:51PM 36.8892 -109.4464 290° West 463 533 38,000  Level Denver Center
05:52PM 36.9317 -109.5908 290° West 461 531 38,000  Level Denver Center
05:53PM 36.9811 -109.7594 290° West 463 533 38,000  Level Denver Center
05:54PM 37.0225 -109.9006 290° West 456 525 38,000  Level Denver Center
05:55PM 37.0700 -110.0656 290° West 452 520 38,000  Level Denver Center
05:56PM 37.1125 -110.2164 290° West 456 525 38,000  Level Denver Center
05:57PM 37.1556 -110.3644 290° West 454 522 38,000  Level Denver Center
05:58PM 37.1978 -110.5128 290° West 452 520 38,000  Level Denver Center
05:59PM 37.2397 -110.6606 290° West 450 518 38,000  Level Denver Center
06:00PM 37.2811 -110.8081 289° West 451 519 38,000  Level Denver Center
06:01PM 37.3297 -110.9825 289° West 444 511 38,000  Level Denver Center
06:02PM 37.3708 -111.1286 290° West 443 510 38,000  Level Denver Center
06:04PM 37.4097 -111.2733 289° West 439 505 38,000  Level Denver Center
06:05PM 37.4500 -111.4197 289° West 442 509 38,000  Level Denver Center
06:06PM 37.4903 -111.5667 289° West 444 511 38,000  Level Denver Center
06:07PM 37.5314 -111.7122 290° West 442 509 38,000  Level Denver Center
06:08PM 37.5783 -111.8883 289° West 444 511 38,000  Level Denver Center
06:09PM 37.6169 -112.0347 288° West 443 510 38,000  Level Denver Center
06:10PM 37.6569 -112.1803 289° West 442 509 38,000  Level Denver Center
06:11PM 37.6961 -112.3261 289° West 442 509 38,000  Level Denver Center
06:12PM 37.7533 -112.5306 290° West 445 512 38,000  Level Salt Lake Center
06:13PM 37.8031 -112.7067 290° West 449 517 38,000  Level Salt Lake Center
06:14PM 37.8442 -112.8553 289° West 454 522 38,000  Level Salt Lake Center
06:16PM 37.9161 -113.1211 289° West 449 517 38,000  Level Los Angeles Center
06:17PM 37.9628 -113.2981 289° West 447 514 38,000  Level Los Angeles Center
06:18PM 38.0025 -113.4450 289° West 443 510 38,000  Level Los Angeles Center
06:19PM 38.0469 -113.6206 288° West 438 504 38,000  Level Salt Lake Center
06:20PM 38.0864 -113.7631 289° West 433 498 38,000  Level Salt Lake Center
06:21PM 38.1225 -113.9083 288° West 433 498 38,000  Level Salt Lake Center
06:23PM 38.1633 -114.0506 290° West 430 495 38,000  Level Salt Lake Center
06:24PM 38.1989 -114.1956 287° West 430 495 38,000  Level Salt Lake Center
06:25PM 38.2419 -114.3675 288° West 428 493 38,000  Level Salt Lake Center
06:26PM 38.2428 -114.5172 270° West 423 487 38,000  Level Salt Lake Center
06:27PM 38.2347 -114.6675 266° West 429 494 38,000  Level Salt Lake Center
06:28PM 38.2253 -114.8194 266° West 432 497 38,000  Level Salt Lake Center
06:29PM 38.2158 -114.9722 266° West 434 499 38,000  Level Salt Lake Center
06:30PM 38.2056 -115.1253 265° West 436 502 38,000  Level Salt Lake Center
06:31PM 38.1936 -115.3069 265° West 432 497 38,000  Level Salt Lake Center
06:32PM 38.1828 -115.4664 265° West 431 496 38,000  Level Salt Lake Center
06:33PM 38.1719 -115.6167 265° West 428 493 38,000  Level Salt Lake Center
06:34PM 38.1619 -115.7675 265° West 428 493 38,000  Level Salt Lake Center
06:35PM 38.1511 -115.9183 265° West 429 494 38,000  Level Salt Lake Center
06:36PM 38.1400 -116.0667 265° West 424 488 38,000  Level Salt Lake Center
06:37PM 38.1292 -116.2167 265° West 425 489 38,000  Level Salt Lake Center
06:38PM 38.1150 -116.3958 264° West 426 490 38,000  Level Salt Lake Center
06:39PM 38.1039 -116.5442 265° West 423 487 38,000  Level Salt Lake Center
06:40PM 38.0931 -116.6933 265° West 424 488 38,000  Level Oakland Center
06:41PM 38.0806 -116.8442 264° West 428 493 38,000  Level Oakland Center
06:42PM 38.0683 -116.9933 264° West 423 487 38,000  Level Oakland Center
06:43PM 38.0542 -117.1458 263° West 425 489 38,000  Level Oakland Center
06:44PM 38.0414 -117.3042 264° West 431 496 38,000  Level Oakland Center
06:45PM 38.0300 -117.4542 265° West 427 491 38,000  Level Oakland Center
06:46PM 38.0169 -117.6031 264° West 423 487 38,000  Level Oakland Center
06:47PM 38.0039 -117.7517 264° West 424 488 38,000  Level Oakland Center
06:48PM 37.9897 -117.8983 263° West 420 483 38,000  Level Oakland Center
06:49PM 37.9733 -118.0461 262° West 423 487 38,000  Level Oakland Center
06:50PM 37.9581 -118.1911 262° West 417 480 38,000  Level Oakland Center
06:51PM 37.9419 -118.3378 262° West 420 483 38,000 -60 Level Oakland Center
06:52PM 37.9228 -118.5119 262° West 417 480 37,900 -540 Descending Oakland Center
06:53PM 37.9061 -118.6583 262° West 419 482 37,000 -480 Descending Oakland Center
06:54PM 37.8900 -118.8050 262° West 422 486 37,000  Level Oakland Center
06:55PM 37.8736 -118.9528 262° West 422 486 37,000  Level Oakland Center
06:56PM 37.8583 -119.0994 263° West 421 484 37,000  Level Oakland Center
06:58PM 37.8394 -119.2456 261° West 422 486 37,000  Level Oakland Center
06:59PM 37.8231 -119.3917 262° West 420 483 37,000  Level Oakland Center
07:00PM 37.8058 -119.5375 262° West 420 483 37,000  Level Oakland Center
07:01PM 37.7861 -119.7147 262° West 422 486 37,000  Level Oakland Center
07:02PM 37.7681 -119.8614 261° West 423 487 37,000 -480 Level Oakland Center
07:03PM 37.7489 -120.0094 261° West 426 490 36,100 -1,980 Descending Oakland Center
07:04PM 37.7308 -120.1594 261° West 431 496 33,000 -3,000 Descending Oakland Center
07:05PM 37.7114 -120.3133 261° West 441 507 29,900 -2,700 Descending Oakland Center
07:06PM 37.6919 -120.4650 261° West 439 505 27,500 -2,400 Descending Oakland Center
07:07PM 37.6733 -120.6111 261° West 428 493 25,100 -2,400 Descending Oakland Center
07:08PM 37.6539 -120.7542 260° West 416 479 22,700 -2,340 Descending Oakland Center
07:09PM 37.6361 -120.8925 261° West 403 464 20,400 -2,460 Descending Oakland Center
07:09PM 37.6167 -120.9833 255° West 399 459 18,900 -2,520 Descending Northern Cal TRACON
07:10PM 37.6167 -121.1167 270° West 392 451 16,600 -2,220 Descending Northern Cal TRACON
07:11PM 37.6000 -121.2333 260° West 376 433 14,700 -1,860 Descending Northern Cal TRACON
07:12PM 37.5833 -121.3667 261° West 350 403 12,900 -1,560 Descending Northern Cal TRACON
07:13PM 37.5667 -121.4833 260° West 327 376 11,600 -1,080 Descending Northern Cal TRACON
07:14PM 37.5500 -121.5833 258° West 307 353 10,900 -780 Descending Northern Cal TRACON
07:15PM 37.5333 -121.6833 258° West 299 344 10,100 -1,200 Descending Northern Cal TRACON
07:16PM 37.5000 -121.7833 247° West 306 352 8,500 -1,080 Descending Northern Cal TRACON
07:17PM 37.4833 -121.8833 258° West 289 333 8,000 -1,020 Descending Northern Cal TRACON
07:18PM 37.5000 -121.9833 282° West 282 325 6,500 -1,620 Descending Northern Cal TRACON
07:19PM 37.5333 -122.0667 297° West 273 314 4,800 -1,740 Descending Northern Cal TRACON